Seattle, Washington
Traffic Map
Current Weather Conditions
Seattle, Washington
Overcast Light Rain
Overcast
48°
Feels Like: 42°
Wind Chill: 42° Ceiling: 1500
Heat Index: 48° Visibility: 8mi
Dew Point: 46° Wind: 15mph
Humidity: 93% Direction: 170° (S)
Pressure: 30.16in Gusts: 22mph
Raw Report DataKBFI 132353Z 17013G19KT 8SM -RA SCT010 BKN015 OVC027 09/08 A3016 RMK AO2 PK WND 17027/2335 SLP212 P0004 60014 T00890078 10106 20089 58013
Traffic Incident Summary
Active as of:
Severity:
Category:
InformationThere was an issue retrieving the traffic information for this location. Please try a different location or try again shortly.
Advertisements
Track Severe Weather on mobile